Time;durP1;ratioP1;P1;durP2;ratioP2;P2;SDS_P1;SDS_P2;PMS_P1;PMS_P2;Temp;Humidity;BMP_temperature;BMP_pressure;BME280_temperature;BME280_humidity;BME280_pressure;Samples;Min_cycle;Max_cycle;Signal;HPM_P1;HPM_P2
2022/12/04 06:04:46;;;;;;;139.52;44.47;;;;;;;0.93;99.55;101886.25;5011302;28;20053;-73
2022/12/04 06:07:11;;;;;;;143.27;40.60;;;;;;;0.86;100.00;101894.00;5016758;28;21930;-72
2022/12/04 06:09:37;;;;;;;129.15;40.58;;;;;;;0.86;99.35;101892.06;5014322;28;20033;-74
2022/12/04 06:12:03;;;;;;;144.50;42.95;;;;;;;0.99;99.72;101896.09;5054627;22;20014;-75
2022/12/04 06:14:28;;;;;;;126.40;43.13;;;;;;;0.88;99.47;101900.03;5014767;28;20057;-74
2022/12/04 06:16:54;;;;;;;141.82;42.83;;;;;;;0.69;99.92;101894.41;5015803;28;20033;-74
2022/12/04 06:19:21;;;;;;;130.25;42.58;;;;;;;0.99;99.55;101893.34;5017780;28;20029;-72
2022/12/04 06:21:49;;;;;;;138.25;41.22;;;;;;;0.73;100.00;101895.47;5016576;28;20035;-72
2022/12/04 06:24:17;;;;;;;126.60;39.63;;;;;;;0.91;100.00;101903.06;5020161;28;20637;-73
2022/12/04 06:26:42;;;;;;;129.15;43.10;;;;;;;1.14;98.63;101897.91;5014319;28;20627;-77
2022/12/04 06:29:09;;;;;;;150.02;43.95;;;;;;;1.05;99.78;101896.88;5016492;28;20076;-73
2022/12/04 06:31:36;;;;;;;136.02;40.50;;;;;;;1.05;98.79;101902.41;5009445;28;20032;-72
2022/12/04 06:34:02;;;;;;;125.05;39.05;;;;;;;1.17;98.57;101889.88;5020853;28;20120;-73
2022/12/04 06:36:28;;;;;;;133.00;42.72;;;;;;;0.96;99.43;101900.25;5018507;28;20119;-75
2022/12/04 06:38:54;;;;;;;128.85;41.70;;;;;;;1.06;99.44;101901.28;5016107;28;21523;-73
2022/12/04 06:41:21;;;;;;;139.40;43.17;;;;;;;1.06;98.95;101904.06;5012809;28;20443;-74
2022/12/04 06:43:47;;;;;;;122.00;39.78;;;;;;;0.99;98.10;101898.84;5015132;28;20524;-72
2022/12/04 06:46:17;;;;;;;138.90;43.25;;;;;;;0.83;98.66;101898.16;5013923;28;20083;-74
2022/12/04 06:48:43;;;;;;;128.45;39.40;;;;;;;1.04;98.86;101895.25;5014443;28;20361;-72
2022/12/04 06:51:11;;;;;;;129.40;44.00;;;;;;;0.95;98.09;101895.88;5017301;28;20059;-74
2022/12/04 06:53:37;;;;;;;121.22;39.30;;;;;;;1.01;98.79;101893.88;5013849;28;20041;-71
2022/12/04 06:56:07;;;;;;;126.57;41.42;;;;;;;0.87;99.46;101899.22;5019899;28;20065;-71
2022/12/04 06:58:32;;;;;;;127.55;38.35;;;;;;;0.99;98.30;101894.19;5021415;28;20036;-71
2022/12/04 07:00:58;;;;;;;120.93;36.47;;;;;;;0.91;99.68;101900.31;5025385;28;20030;-72
2022/12/04 07:03:24;;;;;;;135.27;40.70;;;;;;;0.61;99.72;101901.31;4998332;28;20481;-74
2022/12/04 07:05:49;;;;;;;128.25;42.25;;;;;;;0.78;100.00;101899.03;5005755;28;20029;-72
2022/12/04 07:08:15;;;;;;;130.15;43.25;;;;;;;0.92;99.68;101904.69;5003725;28;20060;-72
2022/12/04 07:10:41;;;;;;;125.45;40.78;;;;;;;0.95;99.13;101898.63;4999735;28;20030;-72
2022/12/04 07:13:07;;;;;;;122.38;40.97;;;;;;;0.95;99.73;101906.88;5001107;28;20116;-73
2022/12/04 07:15:34;;;;;;;133.32;42.38;;;;;;;0.92;99.59;101915.72;5002390;28;20064;-71
2022/12/04 07:18:00;;;;;;;126.32;41.25;;;;;;;1.07;99.24;101901.00;4999994;28;20086;-72
2022/12/04 07:20:26;;;;;;;124.88;42.75;;;;;;;0.79;100.00;101905.34;5002114;28;20029;-72
2022/12/04 07:22:51;;;;;;;132.40;40.60;;;;;;;0.94;99.84;101916.25;5005070;28;20354;-73
2022/12/04 07:25:17;;;;;;;137.73;43.10;;;;;;;0.92;99.77;101914.91;5001901;28;20401;-71
2022/12/04 07:27:42;;;;;;;121.07;39.47;;;;;;;0.88;100.00;101905.56;4999957;28;20042;-72
2022/12/04 07:30:09;;;;;;;127.78;37.92;;;;;;;0.89;100.00;101910.78;4998347;28;20041;-71
2022/12/04 07:32:34;;;;;;;124.78;41.10;;;;;;;0.79;100.00;101906.16;4994680;28;20056;-71
2022/12/04 07:35:00;;;;;;;129.57;38.78;;;;;;;0.69;100.00;101899.91;5002325;28;20053;-72
2022/12/04 07:37:25;;;;;;;143.30;44.22;;;;;;;0.93;99.74;101911.88;4999760;28;20253;-71
2022/12/04 07:39:51;;;;;;;115.05;36.50;;;;;;;1.09;98.74;101917.25;4988170;28;20034;-76
2022/12/04 07:42:17;;;;;;;129.85;41.80;;;;;;;0.86;99.35;101908.59;4992236;28;20025;-73
2022/12/04 07:44:42;;;;;;;125.88;40.88;;;;;;;0.99;99.64;101924.50;5008353;28;20030;-74
2022/12/04 07:47:07;;;;;;;124.78;40.17;;;;;;;0.89;100.00;101915.50;4994940;28;20624;-71
2022/12/04 07:49:33;;;;;;;121.68;38.42;;;;;;;0.90;100.00;101912.44;4992562;28;20036;-75
2022/12/04 07:51:58;;;;;;;120.60;38.78;;;;;;;0.82;100.00;101915.78;4997446;28;20057;-72
2022/12/04 07:54:24;;;;;;;113.15;37.40;;;;;;;0.87;99.92;101912.19;4993382;28;20029;-76
2022/12/04 07:56:49;;;;;;;112.85;38.28;;;;;;;0.75;100.00;101920.81;4992402;28;20579;-75
2022/12/04 07:59:14;;;;;;;124.65;41.03;;;;;;;0.56;100.00;101917.91;4993562;28;20054;-73
2022/12/04 08:01:40;;;;;;;116.78;38.17;;;;;;;0.65;100.00;101915.34;4993270;28;20130;-73
2022/12/04 08:04:05;;;;;;;114.63;37.00;;;;;;;0.68;100.00;101928.59;4999942;28;20037;-72
2022/12/04 08:06:32;;;;;;;114.45;37.03;;;;;;;0.42;100.00;101928.69;4998726;28;20508;-76
2022/12/04 08:08:58;;;;;;;124.22;37.55;;;;;;;0.60;100.00;101936.31;5009897;28;20056;-74
2022/12/04 08:11:25;;;;;;;114.80;37.30;;;;;;;0.43;100.00;101930.38;4991069;28;20477;-72
2022/12/04 08:13:55;;;;;;;121.78;39.72;;;;;;;0.51;100.00;101932.53;4993638;28;20053;-76
2022/12/04 08:16:21;;;;;;;120.18;41.63;;;;;;;0.53;100.00;101930.31;4997853;28;20096;-74
2022/12/04 08:18:47;;;;;;;124.63;36.05;;;;;;;0.68;100.00;101937.66;5008686;28;20038;-72
2022/12/04 08:21:16;;;;;;;116.47;37.33;;;;;;;0.35;100.00;101933.72;5009994;28;20362;-73
2022/12/04 08:23:43;;;;;;;114.65;35.72;;;;;;;0.43;100.00;101929.56;4998356;28;20037;-73
2022/12/04 08:26:09;;;;;;;115.03;39.42;;;;;;;0.65;100.00;101931.91;4995452;28;20388;-72
2022/12/04 08:28:35;;;;;;;112.68;37.13;;;;;;;0.64;100.00;101931.06;4994999;28;20052;-73
2022/12/04 08:31:03;;;;;;;129.25;40.53;;;;;;;0.75;100.00;101935.41;4993024;28;20029;-72
2022/12/04 08:33:28;;;;;;;107.00;34.42;;;;;;;0.60;100.00;101939.09;5015145;28;20058;-72
2022/12/04 08:35:54;;;;;;;115.18;34.00;;;;;;;0.75;100.00;101934.59;4998446;28;20114;-71
2022/12/04 08:38:19;;;;;;;98.70;34.40;;;;;;;0.86;100.00;101933.41;4995497;28;20038;-72
2022/12/04 08:40:44;;;;;;;102.32;34.92;;;;;;;0.84;100.00;101927.34;4998586;28;20444;-74
2022/12/04 08:43:09;;;;;;;104.38;34.45;;;;;;;0.96;100.00;101941.59;4993516;28;20132;-72
2022/12/04 08:45:35;;;;;;;106.50;32.90;;;;;;;0.70;100.00;101935.44;5000277;28;20392;-73
2022/12/04 08:48:01;;;;;;;111.18;34.97;;;;;;;0.78;100.00;101948.63;4991073;28;20117;-71
2022/12/04 08:50:26;;;;;;;102.43;33.17;;;;;;;0.78;100.00;101937.59;5001818;28;20040;-75
2022/12/04 08:52:51;;;;;;;101.63;32.60;;;;;;;0.77;100.00;101948.91;5010057;28;20546;-74
2022/12/04 08:55:17;;;;;;;104.38;33.10;;;;;;;0.59;100.00;101945.72;5014084;28;20060;-72
2022/12/04 08:57:42;;;;;;;81.70;30.65;;;;;;;0.70;100.00;101949.22;4995241;28;20033;-72
2022/12/04 09:00:07;;;;;;;87.40;31.77;;;;;;;0.60;100.00;101950.09;5000311;28;20512;-72
2022/12/04 09:02:33;;;;;;;89.70;31.55;;;;;;;0.43;100.00;101946.91;4998256;28;20079;-73
2022/12/04 09:04:58;;;;;;;83.68;29.70;;;;;;;0.71;100.00;101941.78;4993381;28;20388;-71
2022/12/04 09:07:23;;;;;;;94.95;30.60;;;;;;;0.74;100.00;101947.56;4996558;28;20030;-75
2022/12/04 09:09:49;;;;;;;91.32;30.90;;;;;;;0.75;100.00;101942.84;5004371;28;20065;-72
2022/12/04 09:12:14;;;;;;;91.85;29.58;;;;;;;0.55;100.00;101952.09;4998097;28;20532;-73
2022/12/04 09:14:39;;;;;;;78.50;27.33;;;;;;;0.58;100.00;101944.06;4997029;28;20038;-71
2022/12/04 09:17:05;;;;;;;85.63;28.02;;;;;;;0.50;100.00;101952.91;4995453;28;20045;-73
2022/12/04 09:19:31;;;;;;;86.15;27.58;;;;;;;0.69;100.00;101955.00;4998822;28;20026;-73
2022/12/04 09:21:56;;;;;;;85.75;27.15;;;;;;;0.82;100.00;101959.88;4997454;28;20116;-71
2022/12/04 09:24:21;;;;;;;72.05;27.58;;;;;;;0.89;100.00;101956.84;4995184;28;20060;-73
2022/12/04 09:26:46;;;;;;;79.43;28.58;;;;;;;0.59;100.00;101962.25;5000702;28;20080;-74
2022/12/04 09:29:12;;;;;;;74.30;26.13;;;;;;;0.83;100.00;101963.50;4996458;28;20376;-71
2022/12/04 09:31:37;;;;;;;65.78;26.30;;;;;;;0.61;100.00;101956.44;4985834;28;20059;-74
2022/12/04 09:34:03;;;;;;;79.32;26.42;;;;;;;1.32;100.00;101957.06;4993365;28;20346;-71
2022/12/04 09:36:28;;;;;;;78.78;27.58;;;;;;;1.02;100.00;101956.19;4992849;28;20123;-71
2022/12/04 09:38:54;;;;;;;84.97;27.02;;;;;;;0.67;100.00;101962.75;4993155;28;20044;-73
2022/12/04 09:41:51;;;;;;;79.53;26.33;;;;;;;0.97;100.00;101953.44;4994097;28;20041;-73
2022/12/04 09:44:28;;;;;;;63.08;23.27;;;;;;;1.02;100.00;101958.94;5008585;28;20267;-74
2022/12/04 09:47:14;;;;;;;62.22;24.98;;;;;;;0.74;100.00;101953.06;4986082;28;20028;-72
2022/12/04 09:49:46;;;;;;;72.75;26.48;;;;;;;0.75;100.00;101956.63;4993289;28;21961;-72
2022/12/04 09:52:29;;;;;;;72.03;25.50;;;;;;;0.66;100.00;101961.13;4996707;28;20033;-71
2022/12/04 09:54:57;;;;;;;75.53;25.05;;;;;;;0.76;100.00;101955.50;5000118;28;20056;-76
2022/12/04 09:57:40;;;;;;;88.47;29.63;;;;;;;0.70;100.00;101951.97;5000988;28;20029;-74
2022/12/04 10:00:09;;;;;;;73.13;25.20;;;;;;;0.80;100.00;101951.06;4996272;28;20140;-72
2022/12/04 10:02:40;;;;;;;66.45;25.05;;;;;;;0.94;100.00;101962.31;4993116;28;20034;-72
2022/12/04 10:05:16;;;;;;;83.03;28.63;;;;;;;0.70;100.00;101951.16;5014021;28;20046;-72
2022/12/04 10:07:54;;;;;;;72.78;25.55;;;;;;;0.72;100.00;101944.25;4996781;28;20120;-75
2022/12/04 10:10:35;;;;;;;75.25;24.10;;;;;;;0.75;100.00;101940.91;4993895;28;20065;-77
2022/12/04 10:13:08;;;;;;;74.18;27.80;;;;;;;0.76;100.00;101938.97;5009493;28;20034;-76
2022/12/04 10:15:47;;;;;;;72.97;25.13;;;;;;;0.84;100.00;101938.38;4994488;28;20036;-76
2022/12/04 10:18:25;;;;;;;67.47;23.83;;;;;;;0.81;100.00;101934.25;4994680;28;20037;-74
2022/12/04 10:21:11;;;;;;;77.82;25.42;;;;;;;0.86;100.00;101927.88;5004727;28;20026;-77
2022/12/04 10:24:03;;;;;;;67.18;24.13;;;;;;;0.66;100.00;101928.84;4989455;28;20081;-73
2022/12/04 10:26:35;;;;;;;69.07;23.98;;;;;;;0.86;100.00;101933.41;4995667;28;20448;-73
2022/12/04 10:29:05;;;;;;;60.40;23.88;;;;;;;0.91;100.00;101925.13;4998259;28;20025;-73
2022/12/04 10:31:32;;;;;;;68.88;24.70;;;;;;;0.88;100.00;101931.19;4999342;28;20371;-74
2022/12/04 10:34:05;;;;;;;74.20;25.20;;;;;;;0.87;100.00;101923.22;4994831;28;20076;-74
2022/12/04 10:36:32;;;;;;;;;;;;;;;1.05;100.00;101935.47;4988898;28;20579;-72
2022/12/04 10:39:01;;;;;;;70.00;25.65;;;;;;;1.03;100.00;101927.50;5013489;28;19928;-73
2022/12/04 10:41:44;;;;;;;64.63;23.90;;;;;;;1.00;100.00;101934.41;4997375;28;20389;-72
2022/12/04 10:44:15;;;;;;;75.50;25.65;;;;;;;1.07;100.00;101927.75;4996363;28;20038;-73
2022/12/04 10:46:40;;;;;;;76.05;26.50;;;;;;;1.06;100.00;101921.41;4997961;28;20079;-77
2022/12/04 10:49:20;;;;;;;71.40;27.10;;;;;;;1.04;100.00;101920.88;4996848;28;20429;-72
2022/12/04 10:51:46;;;;;;;63.90;24.83;;;;;;;1.11;100.00;101928.81;4993984;28;20601;-75
2022/12/04 10:54:42;;;;;;;71.85;24.17;;;;;;;1.16;100.00;101918.56;4993023;28;20238;-72
2022/12/04 10:57:10;;;;;;;74.18;25.27;;;;;;;1.20;100.00;101922.41;4998861;28;20037;-73
2022/12/04 10:59:46;;;;;;;85.35;27.90;;;;;;;0.93;100.00;101927.59;4996782;28;20026;-73
2022/12/04 11:02:23;;;;;;;72.95;28.35;;;;;;;0.98;100.00;101924.78;4994908;28;20359;-72
2022/12/04 11:04:56;;;;;;;78.70;27.80;;;;;;;0.89;100.00;101919.06;4992874;28;20022;-72
2022/12/04 11:07:25;;;;;;;95.80;36.60;;;;;;;0.94;100.00;101924.53;5000700;28;20357;-72
2022/12/04 11:10:04;;;;;;;81.80;29.02;;;;;;;1.08;100.00;101921.13;4996655;28;20071;-75
2022/12/04 11:12:31;;;;;;;85.63;31.50;;;;;;;1.13;100.00;101910.88;4993969;28;21477;-75
2022/12/04 11:15:15;;;;;;;90.00;32.30;;;;;;;1.01;100.00;101916.78;4989465;28;20032;-73
2022/12/04 11:17:40;;;;;;;92.57;33.05;;;;;;;1.08;100.00;101896.31;5006162;28;20971;-77
2022/12/04 11:20:18;;;;;;;97.80;34.67;;;;;;;0.97;100.00;101899.16;5012841;28;20036;-74
2022/12/04 11:22:52;;;;;;;88.97;32.85;;;;;;;1.15;100.00;101907.81;4988959;28;20038;-74
2022/12/04 11:25:20;;;;;;;108.70;34.50;;;;;;;1.18;100.00;101896.22;4996268;28;20505;-75
2022/12/04 11:27:49;;;;;;;113.88;36.95;;;;;;;1.08;100.00;101896.31;4990291;28;20037;-73
2022/12/04 11:30:20;;;;;;;97.30;36.10;;;;;;;1.22;100.00;101894.50;4986712;28;20359;-73
2022/12/04 11:32:46;;;;;;;108.90;36.80;;;;;;;1.00;100.00;101895.81;4982489;28;20029;-72
2022/12/04 11:35:19;;;;;;;106.78;36.90;;;;;;;1.21;100.00;101892.88;4993559;28;20107;-75
2022/12/04 11:37:57;;;;;;;102.88;33.88;;;;;;;1.31;100.00;101895.56;4982018;28;20143;-73
2022/12/04 11:40:24;;;;;;;107.00;34.72;;;;;;;1.20;100.00;101892.06;4987734;28;20077;-75
2022/12/04 11:43:11;;;;;;;120.15;40.33;;;;;;;1.30;100.00;101893.88;5003094;28;20065;-74
2022/12/04 11:45:36;;;;;;;128.38;37.90;;;;;;;1.28;100.00;101895.31;4990379;28;20076;-73
2022/12/04 11:48:13;;;;;;;126.80;41.75;;;;;;;1.15;100.00;101891.28;4990167;28;20347;-72
2022/12/04 11:50:50;;;;;;;115.00;38.40;;;;;;;1.18;100.00;101890.69;5007422;28;20026;-74
2022/12/04 11:53:25;;;;;;;107.60;35.38;;;;;;;1.28;100.00;101885.09;4994049;28;20037;-75
2022/12/04 11:56:16;;;;;;;121.68;37.85;;;;;;;1.34;100.00;101878.41;4982860;28;20111;-76
2022/12/04 11:59:02;;;;;;;104.45;38.47;;;;;;;1.36;100.00;101884.47;5004986;28;20030;-74
2022/12/04 12:01:54;;;;;;;122.97;39.88;;;;;;;1.27;100.00;101880.69;4987036;28;20091;-74
2022/12/04 12:04:42;;;;;;;125.85;41.13;;;;;;;1.41;100.00;101869.78;4983176;28;20076;-74
2022/12/04 12:07:21;;;;;;;113.10;36.80;;;;;;;1.40;100.00;101860.69;4981694;28;20455;-76
2022/12/04 12:09:59;;;;;;;96.40;35.30;;;;;;;1.47;100.00;101865.03;4983430;28;20152;-76
2022/12/04 12:12:49;;;;;;;115.97;38.13;;;;;;;1.37;100.00;101850.25;4983780;28;20366;-76
2022/12/04 12:15:30;;;;;;;103.82;36.28;;;;;;;1.40;100.00;101843.31;4990006;28;20053;-74
2022/12/04 12:18:14;;;;;;;115.03;38.10;;;;;;;1.50;100.00;101843.22;4988056;28;20721;-73
2022/12/04 12:20:41;;;;;;;107.70;36.60;;;;;;;1.37;100.00;101857.69;4981519;28;20026;-75
2022/12/04 12:23:17;;;;;;;103.65;38.38;;;;;;;1.45;100.00;101862.56;4994760;28;20152;-73
2022/12/04 12:26:11;;;;;;;115.65;37.25;;;;;;;1.50;100.00;101862.53;4987913;28;20030;-74
2022/12/04 12:29:03;;;;;;;99.57;34.53;;;;;;;1.46;100.00;101857.91;4994619;28;20461;-73
2022/12/04 12:31:50;;;;;;;121.65;38.95;;;;;;;1.57;100.00;101851.97;4987068;28;20036;-75
2022/12/04 12:34:31;;;;;;;109.43;36.70;;;;;;;1.54;100.00;101843.44;4988268;28;20034;-74
2022/12/04 12:36:59;;;;;;;102.05;34.28;;;;;;;1.62;100.00;101849.16;4992028;28;20029;-74
2022/12/04 12:39:48;;;;;;;110.20;35.88;;;;;;;1.72;100.00;101848.19;4993288;28;20143;-74
2022/12/04 12:42:22;;;;;;;113.22;35.80;;;;;;;1.75;100.00;101839.34;5017123;28;20061;-76
2022/12/04 12:44:53;;;;;;;110.05;36.30;;;;;;;1.69;100.00;101842.47;4992731;28;20527;-75
2022/12/04 12:47:24;;;;;;;97.10;32.55;;;;;;;1.67;100.00;101836.41;4996041;28;21808;-76
2022/12/04 12:50:05;;;;;;;89.35;29.98;;;;;;;1.60;100.00;101839.50;5006242;28;20100;-73
2022/12/04 12:52:52;;;;;;;102.47;36.63;;;;;;;1.58;100.00;101833.47;4989384;28;20757;-75
2022/12/04 12:55:34;;;;;;;92.80;33.10;;;;;;;1.67;100.00;101828.94;4989030;28;20029;-76
2022/12/04 12:58:10;;;;;;;92.07;32.63;;;;;;;1.69;100.00;101820.38;5004437;28;20522;-74
2022/12/04 13:00:42;;;;;;;83.10;29.80;;;;;;;1.75;100.00;101813.66;4998590;28;20034;-73
2022/12/04 13:03:42;;;;;;;86.32;31.40;;;;;;;1.64;100.00;101810.22;4989076;28;20018;-76
2022/12/04 13:06:19;;;;;;;100.95;33.58;;;;;;;2.16;100.00;101811.19;4992806;28;20493;-73
2022/12/04 13:08:53;;;;;;;100.57;31.80;;;;;;;3.05;100.00;101807.53;4994481;28;20128;-74
2022/12/04 13:11:22;;;;;;;83.70;29.75;;;;;;;2.46;99.50;101803.56;5009519;28;20052;-76
2022/12/04 13:13:48;;;;;;;83.07;28.77;;;;;;;2.39;99.47;101809.47;4985901;28;20037;-74
2022/12/04 13:16:18;;;;;;;75.43;28.90;;;;;;;2.31;99.86;101812.91;5003791;28;20037;-75
2022/12/04 13:19:01;;;;;;;82.28;28.33;;;;;;;2.27;99.91;101802.75;4986813;28;20549;-72
2022/12/04 13:21:45;;;;;;;;;;;;;;;2.15;100.00;101804.03;4996840;28;20030;-73
2022/12/04 13:24:44;;;;;;;76.63;27.15;;;;;;;2.13;100.00;101803.50;5019376;28;19921;-73
2022/12/04 13:27:26;;;;;;;70.53;25.23;;;;;;;2.12;100.00;101801.03;5002488;28;20034;-73
2022/12/04 13:30:13;;;;;;;73.75;26.85;;;;;;;2.16;100.00;101783.56;5000979;28;20044;-74
2022/12/04 13:32:53;;;;;;;82.47;26.80;;;;;;;2.33;99.51;101793.28;5007334;28;20018;-74
2022/12/04 13:35:26;;;;;;;76.57;27.08;;;;;;;2.28;100.00;101801.63;5001571;28;20124;-74
2022/12/04 13:38:22;;;;;;;71.47;25.40;;;;;;;2.22;99.84;101801.69;5004336;28;20036;-73
2022/12/04 13:41:05;;;;;;;65.10;26.38;;;;;;;2.34;99.52;101798.50;4999844;28;20042;-77
2022/12/04 13:43:36;;;;;;;68.85;26.88;;;;;;;2.36;99.61;101800.94;4997614;28;20029;-74
2022/12/04 13:46:05;;;;;;;60.88;25.80;;;;;;;2.38;99.23;101795.94;5001233;28;20025;-77
2022/12/04 13:48:38;;;;;;;77.00;28.33;;;;;;;2.49;98.72;101800.22;4999661;28;20645;-75
2022/12/04 13:51:21;;;;;;;65.03;25.48;;;;;;;2.49;98.55;101797.44;5004557;28;20500;-73
2022/12/04 13:53:47;;;;;;;67.13;25.73;;;;;;;2.31;100.00;101795.50;5002152;28;20032;-73
2022/12/04 13:56:28;;;;;;;53.80;21.55;;;;;;;2.34;100.00;101803.19;4996857;28;20370;-74
2022/12/04 13:59:02;;;;;;;62.33;24.23;;;;;;;2.43;99.61;101804.16;4999669;28;20448;-75
2022/12/04 14:01:43;;;;;;;65.80;23.80;;;;;;;2.37;100.00;101802.59;5003161;28;20372;-73
2022/12/04 14:04:32;;;;;;;54.10;23.55;;;;;;;2.45;99.29;101799.16;5005032;28;20029;-73
2022/12/04 14:07:00;;;;;;;55.40;22.67;;;;;;;2.44;99.21;101805.78;4999920;28;20030;-73
2022/12/04 14:09:27;;;;;;;59.72;22.70;;;;;;;2.39;99.54;101803.13;5004474;28;20026;-73
2022/12/04 14:11:58;;;;;;;57.17;22.58;;;;;;;2.48;99.42;101806.03;5001749;28;20065;-73
2022/12/04 14:14:36;;;;;;;64.60;23.33;;;;;;;2.56;98.53;101808.94;5003439;28;20074;-74
2022/12/04 14:17:03;;;;;;;50.97;21.40;;;;;;;2.53;98.26;101797.63;5000968;28;20329;-73
2022/12/04 14:19:33;;;;;;;60.63;21.83;;;;;;;2.46;99.19;101792.50;5005113;28;20038;-73
2022/12/04 14:21:59;;;;;;;57.47;23.70;;;;;;;2.35;98.73;101797.38;5002795;28;20121;-73
2022/12/04 14:24:34;;;;;;;59.60;23.15;;;;;;;2.37;99.14;101806.19;5005698;28;20464;-73
2022/12/04 14:27:03;;;;;;;60.15;24.33;;;;;;;2.32;99.92;101808.19;5002974;28;20044;-73
2022/12/04 14:29:46;;;;;;;58.20;23.88;;;;;;;2.34;99.63;101801.28;5005997;28;20033;-74
2022/12/04 14:32:22;;;;;;;63.50;26.13;;;;;;;2.18;99.76;101797.91;5009591;28;20022;-73
2022/12/04 14:34:48;;;;;;;66.70;23.75;;;;;;;2.40;99.57;101807.50;4997054;28;20030;-72
2022/12/04 14:37:22;;;;;;;59.17;22.33;;;;;;;2.36;99.65;101812.84;5002940;28;20060;-73
2022/12/04 14:39:49;;;;;;;62.35;23.27;;;;;;;2.39;99.46;101809.47;4999171;28;20504;-73
2022/12/04 14:42:35;;;;;;;61.50;22.92;;;;;;;2.39;99.85;101814.19;4992941;28;20018;-73
2022/12/04 14:45:04;;;;;;;59.22;23.55;;;;;;;2.36;99.34;101814.75;4994397;28;20042;-73
2022/12/04 14:47:42;;;;;;;62.90;21.55;;;;;;;2.21;100.00;101813.88;4994068;28;20396;-74
2022/12/04 14:50:26;;;;;;;63.05;23.50;;;;;;;2.45;99.14;101818.50;4990578;28;20034;-73
2022/12/04 14:53:00;;;;;;;55.35;22.17;;;;;;;2.55;98.88;101823.88;4993804;28;20034;-73
2022/12/04 14:55:35;;;;;;;57.53;23.17;;;;;;;2.53;98.53;101820.59;4998252;28;20080;-74
2022/12/04 14:58:33;;;;;;;57.17;22.77;;;;;;;2.44;99.37;101822.38;5002001;28;20038;-73
2022/12/04 15:01:04;;;;;;;62.45;23.20;;;;;;;2.40;99.04;101826.84;4998849;28;20045;-73
2022/12/04 15:03:35;;;;;;;58.80;22.38;;;;;;;2.34;99.55;101828.06;5003875;28;20036;-75
2022/12/04 15:06:12;;;;;;;57.47;24.38;;;;;;;2.34;99.51;101826.13;4997194;28;20096;-74
2022/12/04 15:08:48;;;;;;;57.00;21.02;;;;;;;2.53;99.16;101826.13;4998791;28;20087;-75
2022/12/04 15:14:12;;;;;;;65.88;22.80;;;;;;;2.38;100.00;101823.56;4997717;28;20147;-76
2022/12/04 15:16:37;;;;;;;56.30;23.05;;;;;;;2.42;99.75;101830.16;4997559;28;20478;-74
2022/12/04 15:19:03;;;;;;;54.97;22.48;;;;;;;2.56;99.34;101830.22;4997421;28;20034;-74
2022/12/04 15:21:54;;;;;;;51.10;22.88;;;;;;;2.56;99.24;101833.81;5002313;28;20037;-73
2022/12/04 15:24:23;;;;;;;54.65;23.42;;;;;;;2.56;99.29;101836.56;5006462;28;20465;-74
2022/12/04 15:26:50;;;;;;;60.33;24.23;;;;;;;2.64;98.56;101833.13;5015369;28;20125;-75
2022/12/04 15:29:24;;;;;;;57.50;24.17;;;;;;;2.60;99.17;101842.31;4999647;28;20446;-74
2022/12/04 15:31:55;;;;;;;65.47;24.23;;;;;;;2.58;99.80;101839.84;4994190;28;20027;-74
2022/12/04 15:34:35;;;;;;;63.45;25.85;;;;;;;2.53;99.76;101842.72;4990593;28;20484;-75
2022/12/04 15:37:31;;;;;;;59.72;24.30;;;;;;;2.44;100.00;101844.47;4996706;28;20033;-73
2022/12/04 15:39:57;;;;;;;72.85;28.23;;;;;;;2.36;100.00;101847.91;4999840;28;20043;-74
2022/12/04 15:42:22;;;;;;;66.90;27.65;;;;;;;2.34;100.00;101851.00;4995229;28;20033;-74
2022/12/04 15:45:04;;;;;;;66.65;25.33;;;;;;;2.34;100.00;101852.91;4999189;28;20041;-75
2022/12/04 15:47:54;;;;;;;67.78;28.92;;;;;;;2.61;99.61;101847.56;4999143;28;20556;-75
2022/12/04 15:50:25;;;;;;;66.82;25.92;;;;;;;2.46;100.00;101853.28;5006900;28;20469;-73
2022/12/04 15:53:11;;;;;;;71.50;27.33;;;;;;;2.48;100.00;101850.25;5003131;28;20479;-74
2022/12/04 15:55:59;;;;;;;61.22;26.50;;;;;;;2.50;100.00;101854.34;5002801;28;20141;-74
2022/12/04 15:58:28;;;;;;;81.97;30.08;;;;;;;2.52;100.00;101857.63;4997310;28;20091;-73
2022/12/04 16:00:57;;;;;;;69.32;31.77;;;;;;;2.50;100.00;101848.81;5002134;28;20495;-73
2022/12/04 16:03:42;;;;;;;54.28;26.40;;;;;;;2.58;100.00;101850.91;5000151;28;20118;-73
2022/12/04 16:06:19;;;;;;;66.60;25.52;;;;;;;2.55;100.00;101857.03;4999416;28;20073;-74
2022/12/04 16:08:47;;;;;;;66.78;26.88;;;;;;;2.57;100.00;101845.66;5004398;28;20747;-73
2022/12/04 16:11:21;;;;;;;67.72;26.75;;;;;;;2.69;100.00;101850.75;5000777;28;20037;-76
2022/12/04 16:14:03;;;;;;;64.30;25.65;;;;;;;2.64;100.00;101849.72;4998784;28;20068;-73
2022/12/04 16:16:28;;;;;;;75.18;29.42;;;;;;;2.67;100.00;101850.22;5004118;28;20045;-73
2022/12/04 16:18:54;;;;;;;72.93;28.35;;;;;;;2.61;100.00;101849.47;4999712;28;20042;-73
2022/12/04 16:21:23;;;;;;;74.57;29.60;;;;;;;2.72;99.95;101850.97;5009054;28;20029;-73
2022/12/04 16:23:49;;;;;;;76.18;29.08;;;;;;;2.58;100.00;101850.09;4999864;28;20423;-73
2022/12/04 16:26:18;;;;;;;73.95;27.58;;;;;;;2.59;100.00;101847.03;5005608;28;20034;-72
2022/12/04 16:28:44;;;;;;;69.07;27.80;;;;;;;2.70;100.00;101846.84;5001292;28;20037;-73
2022/12/04 16:31:11;;;;;;;71.30;28.63;;;;;;;2.72;100.00;101844.59;5005244;28;20030;-73
2022/12/04 16:33:36;;;;;;;82.53;28.90;;;;;;;2.67;100.00;101847.47;4997254;28;20351;-73
2022/12/04 16:36:03;;;;;;;80.47;31.17;;;;;;;2.62;100.00;101849.19;5001140;28;20041;-73
2022/12/04 16:38:28;;;;;;;73.63;30.80;;;;;;;2.43;100.00;101851.97;5003797;28;20033;-74
2022/12/04 16:40:53;;;;;;;75.82;29.27;;;;;;;2.61;100.00;101839.28;5000174;28;20034;-74
2022/12/04 16:43:19;;;;;;;78.10;29.17;;;;;;;2.74;100.00;101853.44;5003160;28;20026;-74
2022/12/04 16:45:47;;;;;;;87.15;28.90;;;;;;;2.67;100.00;101851.03;5002961;28;20466;-73
2022/12/04 16:48:14;;;;;;;68.10;27.70;;;;;;;2.71;100.00;101857.63;5007064;28;20030;-74
2022/12/04 16:50:40;;;;;;;78.22;29.98;;;;;;;2.68;100.00;101849.09;5010010;28;20442;-73
2022/12/04 16:53:05;;;;;;;63.00;26.13;;;;;;;2.65;100.00;101851.34;5015093;28;20033;-73
2022/12/04 16:55:37;;;;;;;75.32;30.00;;;;;;;2.59;100.00;101852.56;5004275;28;20429;-73
2022/12/04 16:58:03;;;;;;;76.65;30.35;;;;;;;2.56;100.00;101849.56;5023798;28;20055;-74
2022/12/04 17:00:28;;;;;;;82.72;30.73;;;;;;;2.51;100.00;101856.00;5002263;28;20038;-74
2022/12/04 17:02:54;;;;;;;64.30;26.70;;;;;;;2.65;100.00;101851.34;5007291;28;20040;-75
2022/12/04 17:05:22;;;;;;;80.68;30.33;;;;;;;2.46;100.00;101847.78;5011189;28;20029;-76
2022/12/04 17:07:48;;;;;;;82.25;33.92;;;;;;;2.56;100.00;101855.91;5001763;28;20473;-73
2022/12/04 17:10:14;;;;;;;74.78;27.95;;;;;;;2.65;100.00;101851.34;5001379;28;20040;-75
2022/12/04 17:12:40;;;;;;;79.25;31.42;;;;;;;2.70;100.00;101861.53;4996545;28;21285;-73
2022/12/04 17:15:07;;;;;;;77.97;30.55;;;;;;;2.75;100.00;101852.31;4999469;28;20111;-73
2022/12/04 17:17:32;;;;;;;87.15;34.25;;;;;;;2.65;100.00;101862.41;5004022;28;20448;-74
2022/12/04 17:19:57;;;;;;;82.15;32.13;;;;;;;2.52;100.00;101865.09;5000756;28;20026;-72
2022/12/04 17:22:25;;;;;;;82.90;29.88;;;;;;;2.51;100.00;101866.22;5015005;28;20026;-73
2022/12/04 17:24:52;;;;;;;83.78;31.50;;;;;;;2.61;100.00;101869.69;5005527;28;20068;-75
2022/12/04 17:27:18;;;;;;;77.72;29.30;;;;;;;2.74;100.00;101864.47;5000531;28;20493;-72
2022/12/04 17:29:43;;;;;;;81.32;34.45;;;;;;;2.67;100.00;101867.63;4999714;28;20148;-73
2022/12/04 17:32:08;;;;;;;114.95;47.60;;;;;;;2.65;100.00;101861.56;5005681;28;20394;-72
2022/12/04 17:34:33;;;;;;;115.35;46.38;;;;;;;2.61;100.00;101861.38;5008629;28;20049;-73
2022/12/04 17:36:59;;;;;;;112.57;44.63;;;;;;;2.71;100.00;101870.63;4997816;28;20160;-73